Aérodrome :
LOGIN :

S'inscrire | Disclaimer

   EN    FR    IT 

 










Légende :    VFR   VFR Marginal   IFR   IFR Intensif   IFR Très Intensif
Visi : 
Plafond : 
>= 8 km
>= 3000ft
5 à 8 km
1000 à 3000 ft
1500m à 5 km
500 à 1000 ft
800 à 1500m
200 à 500 ft
< 800m
< 200 ft
Symboles :   Orages  Brouillard  Fortes neiges  Fortes précipitations  Vent > 20 kt
SIGMETs :   Divers  Orages  Givrage  Turbulence  Onde Orograph.  Cendres Volcan.







- Altitude de l'aérodrome : 184 ft
- Code IATA : BRU


EBBR - Bruxelles

DERNIER METAR :
  • 161450Z 28010KT 9999 BKN035 06/M00 Q0995 NOSIG

METARs EXPIRÉS :
  • 161420Z 28012KT 9999 SCT035 06/M01 Q0996 NOSIG
  • 161350Z 27020KT 9999 FEW034 07/M02 Q0996 NOSIG
  • 161320Z 26016KT 9999 FEW033 07/M01 Q0995 NOSIG
  • 161250Z 27017KT 9999 FEW032 BKN036 07/00 Q0996 NOSIG
  • 161220Z 27016KT 9999 FEW032 BKN036 07/01 Q0996 NOSIG

TAF COR TAF EBBR
Valide du 16 à 12h jusqu'au 17 à 18h UTC


161138Z 1612/1718 25015G25KT 9999 FEW15TCU SCT030
PROB40
TEMPO 1612/1712 4000 SHRA SCT009 BKN014TCU
PROB40
TEMPO 1620/1706 3000 25025G38KT SHRASN SHGS BKN007 SCT015CB
Pas de NOTAMs connus pour ce terrain.
1 SIGMET publié pour la FIR Brussels (EBBU) :
 
Turbulence forte
EBBU SIGMET 03 VALID 161200/161600 EBBR
EBBU BRUSSELS FIR SEV TURB FCST W OF LINE N5046 E00244-N5115 E00344 SFC/FL050 STNR NC=



MET'MAP, la Météo Aéronautique d'un coup d'oeil ! - Copyright ORBIFLY Décembre 2007 - Disclaimer

ORBIFLY MET'MAP TEAM :

Programmation & Développement : Alexandra Zaïnal
Conception & Développement : Baudouin d'Aumeries
Co-Programmation & Développement : Marc-Olivier Méhu
Soutien technique & logistique : Manuel Goepfert

Contact : metmap@orbifly.com




SOURCES & CREDITS :

   NOAA